sensor_id;sensor_type;location;lat;lon;timestamp;P1;durP1;ratioP1;P2;durP2;ratioP2
71503;SDS011;59323;50.874;7.028;2022-09-12T00:00:48;32.27;;;12.73;;
71503;SDS011;59323;50.874;7.028;2022-09-12T00:03:14;29.65;;;12.80;;
71503;SDS011;59323;50.874;7.028;2022-09-12T00:05:43;29.20;;;12.23;;
71503;SDS011;59323;50.874;7.028;2022-09-12T00:08:10;28.67;;;11.27;;
71503;SDS011;59323;50.874;7.028;2022-09-12T00:10:41;30.27;;;12.53;;
71503;SDS011;59323;50.874;7.028;2022-09-12T00:13:07;27.45;;;11.93;;
71503;SDS011;59323;50.874;7.028;2022-09-12T00:15:37;30.63;;;13.43;;
71503;SDS011;59323;50.874;7.028;2022-09-12T00:18:03;25.25;;;11.77;;
71503;SDS011;59323;50.874;7.028;2022-09-12T00:20:29;28.90;;;11.90;;
71503;SDS011;59323;50.874;7.028;2022-09-12T00:22:54;27.03;;;12.93;;
71503;SDS011;59323;50.874;7.028;2022-09-12T00:25:20;26.60;;;11.05;;
71503;SDS011;59323;50.874;7.028;2022-09-12T00:27:45;26.53;;;12.73;;
71503;SDS011;59323;50.874;7.028;2022-09-12T00:30:11;25.43;;;11.77;;
71503;SDS011;59323;50.874;7.028;2022-09-12T00:32:36;24.37;;;11.03;;
71503;SDS011;59323;50.874;7.028;2022-09-12T00:35:01;23.33;;;11.37;;
71503;SDS011;59323;50.874;7.028;2022-09-12T00:37:27;25.07;;;10.93;;
71503;SDS011;59323;50.874;7.028;2022-09-12T00:39:52;28.13;;;12.33;;
71503;SDS011;59323;50.874;7.028;2022-09-12T00:42:18;25.83;;;12.00;;
71503;SDS011;59323;50.874;7.028;2022-09-12T00:44:44;23.52;;;11.40;;
71503;SDS011;59323;50.874;7.028;2022-09-12T00:47:13;28.10;;;12.07;;
71503;SDS011;59323;50.874;7.028;2022-09-12T00:52:16;25.77;;;12.35;;
71503;SDS011;59323;50.874;7.028;2022-09-12T00:57:20;25.40;;;11.18;;
71503;SDS011;59323;50.874;7.028;2022-09-12T01:00:12;26.13;;;11.83;;
71503;SDS011;59323;50.874;7.028;2022-09-12T01:02:41;26.88;;;11.85;;
71503;SDS011;59323;50.874;7.028;2022-09-12T01:05:08;24.20;;;10.75;;
71503;SDS011;59323;50.874;7.028;2022-09-12T01:07:35;24.80;;;10.82;;
71503;SDS011;59323;50.874;7.028;2022-09-12T01:10:02;29.75;;;12.30;;
71503;SDS011;59323;50.874;7.028;2022-09-12T01:12:32;27.30;;;11.80;;
71503;SDS011;59323;50.874;7.028;2022-09-12T01:14:59;25.63;;;11.95;;
71503;SDS011;59323;50.874;7.028;2022-09-12T01:18:13;24.45;;;11.48;;
71503;SDS011;59323;50.874;7.028;2022-09-12T01:20:23;27.65;;;11.98;;
71503;SDS011;59323;50.874;7.028;2022-09-12T01:34:24;22.13;;;9.73;;
71503;SDS011;59323;50.874;7.028;2022-09-12T01:47:58;27.38;;;11.40;;
71503;SDS011;59323;50.874;7.028;2022-09-12T01:50:39;28.65;;;11.60;;
71503;SDS011;59323;50.874;7.028;2022-09-12T01:56:13;21.85;;;10.75;;
71503;SDS011;59323;50.874;7.028;2022-09-12T01:58:50;24.65;;;11.02;;
71503;SDS011;59323;50.874;7.028;2022-09-12T02:01:22;24.90;;;11.70;;
71503;SDS011;59323;50.874;7.028;2022-09-12T02:06:21;29.07;;;11.87;;
71503;SDS011;59323;50.874;7.028;2022-09-12T02:08:56;26.90;;;11.98;;
71503;SDS011;59323;50.874;7.028;2022-09-12T02:11:37;23.33;;;11.52;;
71503;SDS011;59323;50.874;7.028;2022-09-12T02:14:26;30.58;;;12.52;;
71503;SDS011;59323;50.874;7.028;2022-09-12T02:16:58;24.63;;;11.02;;
71503;SDS011;59323;50.874;7.028;2022-09-12T02:19:33;29.63;;;12.83;;
71503;SDS011;59323;50.874;7.028;2022-09-12T02:22:05;24.70;;;10.95;;
71503;SDS011;59323;50.874;7.028;2022-09-12T02:24:37;24.38;;;11.48;;
71503;SDS011;59323;50.874;7.028;2022-09-12T02:27:17;26.42;;;11.10;;
71503;SDS011;59323;50.874;7.028;2022-09-12T02:30:07;28.20;;;11.95;;
71503;SDS011;59323;50.874;7.028;2022-09-12T02:32:39;21.77;;;9.93;;
71503;SDS011;59323;50.874;7.028;2022-09-12T02:35:21;25.45;;;11.18;;
71503;SDS011;59323;50.874;7.028;2022-09-12T02:40:44;26.00;;;10.85;;
71503;SDS011;59323;50.874;7.028;2022-09-12T02:43:10;23.47;;;9.83;;
71503;SDS011;59323;50.874;7.028;2022-09-12T02:45:35;22.97;;;10.00;;
71503;SDS011;59323;50.874;7.028;2022-09-12T02:48:01;22.17;;;10.27;;
71503;SDS011;59323;50.874;7.028;2022-09-12T02:50:34;24.90;;;10.23;;
71503;SDS011;59323;50.874;7.028;2022-09-12T02:53:00;23.67;;;10.60;;
71503;SDS011;59323;50.874;7.028;2022-09-12T02:55:29;23.70;;;10.47;;
71503;SDS011;59323;50.874;7.028;2022-09-12T02:57:56;23.48;;;10.63;;
71503;SDS011;59323;50.874;7.028;2022-09-12T03:00:22;24.02;;;10.30;;
71503;SDS011;59323;50.874;7.028;2022-09-12T03:10:46;26.35;;;11.65;;
71503;SDS011;59323;50.874;7.028;2022-09-12T03:21:11;20.75;;;9.88;;
71503;SDS011;59323;50.874;7.028;2022-09-12T03:29:05;20.55;;;9.88;;
71503;SDS011;59323;50.874;7.028;2022-09-12T03:31:34;22.40;;;10.03;;
71503;SDS011;59323;50.874;7.028;2022-09-12T03:34:00;26.05;;;10.65;;
71503;SDS011;59323;50.874;7.028;2022-09-12T03:36:26;20.83;;;9.77;;
71503;SDS011;59323;50.874;7.028;2022-09-12T03:38:53;20.35;;;9.77;;
71503;SDS011;59323;50.874;7.028;2022-09-12T03:41:18;23.10;;;10.60;;
71503;SDS011;59323;50.874;7.028;2022-09-12T03:43:44;23.23;;;10.20;;
71503;SDS011;59323;50.874;7.028;2022-09-12T03:46:10;19.37;;;9.97;;
71503;SDS011;59323;50.874;7.028;2022-09-12T03:48:35;18.50;;;8.83;;
71503;SDS011;59323;50.874;7.028;2022-09-12T03:51:06;22.50;;;9.50;;
71503;SDS011;59323;50.874;7.028;2022-09-12T03:53:35;22.08;;;9.80;;
71503;SDS011;59323;50.874;7.028;2022-09-12T03:56:13;20.67;;;9.10;;
71503;SDS011;59323;50.874;7.028;2022-09-12T03:58:38;22.75;;;9.95;;
71503;SDS011;59323;50.874;7.028;2022-09-12T04:01:08;20.60;;;8.90;;
71503;SDS011;59323;50.874;7.028;2022-09-12T04:03:39;21.65;;;9.68;;
71503;SDS011;59323;50.874;7.028;2022-09-12T04:06:06;24.43;;;10.57;;
71503;SDS011;59323;50.874;7.028;2022-09-12T04:08:33;22.17;;;9.18;;
71503;SDS011;59323;50.874;7.028;2022-09-12T04:11:03;19.27;;;9.15;;
71503;SDS011;59323;50.874;7.028;2022-09-12T04:13:29;20.75;;;9.07;;
71503;SDS011;59323;50.874;7.028;2022-09-12T04:15:55;22.30;;;9.90;;
71503;SDS011;59323;50.874;7.028;2022-09-12T04:18:24;21.45;;;9.48;;
71503;SDS011;59323;50.874;7.028;2022-09-12T04:20:50;18.90;;;9.80;;
71503;SDS011;59323;50.874;7.028;2022-09-12T04:23:15;21.07;;;9.50;;
71503;SDS011;59323;50.874;7.028;2022-09-12T04:25:41;20.17;;;8.80;;
71503;SDS011;59323;50.874;7.028;2022-09-12T04:28:06;22.07;;;9.80;;
71503;SDS011;59323;50.874;7.028;2022-09-12T04:30:32;24.20;;;9.75;;
71503;SDS011;59323;50.874;7.028;2022-09-12T04:32:58;19.65;;;8.95;;
71503;SDS011;59323;50.874;7.028;2022-09-12T04:35:23;20.87;;;9.07;;
71503;SDS011;59323;50.874;7.028;2022-09-12T04:37:49;21.27;;;9.57;;
71503;SDS011;59323;50.874;7.028;2022-09-12T04:40:14;22.40;;;9.93;;
71503;SDS011;59323;50.874;7.028;2022-09-12T04:42:40;19.30;;;8.35;;
71503;SDS011;59323;50.874;7.028;2022-09-12T04:45:05;20.67;;;8.60;;
71503;SDS011;59323;50.874;7.028;2022-09-12T04:47:31;21.90;;;8.47;;
71503;SDS011;59323;50.874;7.028;2022-09-12T04:49:57;18.92;;;8.48;;
71503;SDS011;59323;50.874;7.028;2022-09-12T04:52:22;25.63;;;9.87;;
71503;SDS011;59323;50.874;7.028;2022-09-12T04:54:48;22.23;;;9.87;;
71503;SDS011;59323;50.874;7.028;2022-09-12T04:57:13;27.98;;;8.82;;
71503;SDS011;59323;50.874;7.028;2022-09-12T04:59:38;18.50;;;8.23;;
71503;SDS011;59323;50.874;7.028;2022-09-12T05:02:04;23.63;;;9.70;;
71503;SDS011;59323;50.874;7.028;2022-09-12T05:04:29;19.87;;;8.63;;
71503;SDS011;59323;50.874;7.028;2022-09-12T05:06:55;21.63;;;8.57;;
71503;SDS011;59323;50.874;7.028;2022-09-12T05:09:21;21.95;;;9.10;;
71503;SDS011;59323;50.874;7.028;2022-09-12T05:11:46;17.90;;;9.37;;
71503;SDS011;59323;50.874;7.028;2022-09-12T05:14:12;21.50;;;9.23;;
71503;SDS011;59323;50.874;7.028;2022-09-12T05:16:37;18.55;;;8.27;;
71503;SDS011;59323;50.874;7.028;2022-09-12T05:19:05;17.63;;;8.00;;
71503;SDS011;59323;50.874;7.028;2022-09-12T05:21:31;19.33;;;8.20;;
71503;SDS011;59323;50.874;7.028;2022-09-12T05:23:59;19.40;;;8.73;;
71503;SDS011;59323;50.874;7.028;2022-09-12T05:26:25;15.87;;;7.70;;
71503;SDS011;59323;50.874;7.028;2022-09-12T05:28:53;19.95;;;9.27;;
71503;SDS011;59323;50.874;7.028;2022-09-12T05:31:28;20.63;;;9.90;;
71503;SDS011;59323;50.874;7.028;2022-09-12T05:33:54;21.13;;;9.15;;
71503;SDS011;59323;50.874;7.028;2022-09-12T05:36:21;20.67;;;9.13;;
71503;SDS011;59323;50.874;7.028;2022-09-12T05:38:48;21.52;;;9.80;;
71503;SDS011;59323;50.874;7.028;2022-09-12T05:41:18;21.73;;;10.43;;
71503;SDS011;59323;50.874;7.028;2022-09-12T05:43:51;17.80;;;7.90;;
71503;SDS011;59323;50.874;7.028;2022-09-12T05:46:26;18.35;;;8.50;;
71503;SDS011;59323;50.874;7.028;2022-09-12T05:48:53;22.25;;;8.43;;
71503;SDS011;59323;50.874;7.028;2022-09-12T05:51:20;20.75;;;8.43;;
71503;SDS011;59323;50.874;7.028;2022-09-12T05:53:52;20.95;;;8.90;;
71503;SDS011;59323;50.874;7.028;2022-09-12T05:56:20;19.10;;;8.40;;
71503;SDS011;59323;50.874;7.028;2022-09-12T05:58:57;22.10;;;9.27;;
71503;SDS011;59323;50.874;7.028;2022-09-12T06:01:27;19.92;;;8.43;;
71503;SDS011;59323;50.874;7.028;2022-09-12T06:03:55;17.92;;;8.13;;
71503;SDS011;59323;50.874;7.028;2022-09-12T06:06:25;22.17;;;8.45;;
71503;SDS011;59323;50.874;7.028;2022-09-12T06:08:53;20.07;;;8.13;;
71503;SDS011;59323;50.874;7.028;2022-09-12T06:11:50;20.45;;;8.93;;
71503;SDS011;59323;50.874;7.028;2022-09-12T06:14:21;20.30;;;9.48;;
71503;SDS011;59323;50.874;7.028;2022-09-12T06:16:47;21.60;;;9.00;;
71503;SDS011;59323;50.874;7.028;2022-09-12T06:19:20;19.98;;;8.50;;
71503;SDS011;59323;50.874;7.028;2022-09-12T06:21:50;17.83;;;8.17;;
71503;SDS011;59323;50.874;7.028;2022-09-12T06:24:17;20.83;;;8.60;;
71503;SDS011;59323;50.874;7.028;2022-09-12T06:26:45;22.75;;;8.60;;
71503;SDS011;59323;50.874;7.028;2022-09-12T06:29:19;18.88;;;8.60;;
71503;SDS011;59323;50.874;7.028;2022-09-12T06:31:47;18.60;;;8.23;;
71503;SDS011;59323;50.874;7.028;2022-09-12T06:34:16;17.57;;;7.30;;
71503;SDS011;59323;50.874;7.028;2022-09-12T06:36:45;19.80;;;7.97;;
71503;SDS011;59323;50.874;7.028;2022-09-12T06:39:20;16.77;;;8.45;;
71503;SDS011;59323;50.874;7.028;2022-09-12T06:41:47;20.75;;;8.20;;
71503;SDS011;59323;50.874;7.028;2022-09-12T06:44:15;22.33;;;7.95;;
71503;SDS011;59323;50.874;7.028;2022-09-12T06:46:42;25.10;;;8.10;;
71503;SDS011;59323;50.874;7.028;2022-09-12T06:49:08;19.30;;;7.75;;
71503;SDS011;59323;50.874;7.028;2022-09-12T06:51:34;23.23;;;7.53;;
71503;SDS011;59323;50.874;7.028;2022-09-12T06:54:02;20.20;;;7.63;;
71503;SDS011;59323;50.874;7.028;2022-09-12T06:56:29;23.73;;;7.63;;
71503;SDS011;59323;50.874;7.028;2022-09-12T06:58:55;20.85;;;7.32;;
71503;SDS011;59323;50.874;7.028;2022-09-12T07:01:26;21.00;;;8.15;;
71503;SDS011;59323;50.874;7.028;2022-09-12T07:03:54;20.83;;;7.78;;
71503;SDS011;59323;50.874;7.028;2022-09-12T07:06:22;18.53;;;7.60;;
71503;SDS011;59323;50.874;7.028;2022-09-12T07:08:56;19.58;;;7.72;;
71503;SDS011;59323;50.874;7.028;2022-09-12T07:11:24;16.17;;;7.07;;
71503;SDS011;59323;50.874;7.028;2022-09-12T07:13:52;16.35;;;7.30;;
71503;SDS011;59323;50.874;7.028;2022-09-12T07:16:20;18.58;;;7.40;;
71503;SDS011;59323;50.874;7.028;2022-09-12T07:18:52;18.03;;;7.73;;
71503;SDS011;59323;50.874;7.028;2022-09-12T07:21:21;15.13;;;7.05;;
71503;SDS011;59323;50.874;7.028;2022-09-12T07:23:47;18.85;;;7.03;;
71503;SDS011;59323;50.874;7.028;2022-09-12T07:26:13;18.27;;;7.43;;
71503;SDS011;59323;50.874;7.028;2022-09-12T07:28:39;17.77;;;7.07;;
71503;SDS011;59323;50.874;7.028;2022-09-12T07:31:07;16.33;;;6.97;;
71503;SDS011;59323;50.874;7.028;2022-09-12T07:33:34;20.80;;;7.97;;
71503;SDS011;59323;50.874;7.028;2022-09-12T07:36:01;14.43;;;6.50;;
71503;SDS011;59323;50.874;7.028;2022-09-12T07:38:28;24.27;;;7.97;;
71503;SDS011;59323;50.874;7.028;2022-09-12T07:40:54;20.63;;;7.23;;
71503;SDS011;59323;50.874;7.028;2022-09-12T07:43:19;17.77;;;6.97;;
71503;SDS011;59323;50.874;7.028;2022-09-12T07:45:44;19.03;;;7.67;;
71503;SDS011;59323;50.874;7.028;2022-09-12T07:48:10;23.23;;;7.95;;
71503;SDS011;59323;50.874;7.028;2022-09-12T07:50:35;21.57;;;6.80;;
71503;SDS011;59323;50.874;7.028;2022-09-12T07:53:03;16.55;;;6.57;;
71503;SDS011;59323;50.874;7.028;2022-09-12T07:55:29;16.10;;;6.30;;
71503;SDS011;59323;50.874;7.028;2022-09-12T07:57:55;31.93;;;6.70;;
71503;SDS011;59323;50.874;7.028;2022-09-12T08:00:20;19.33;;;6.63;;
71503;SDS011;59323;50.874;7.028;2022-09-12T08:02:52;16.73;;;6.37;;
71503;SDS011;59323;50.874;7.028;2022-09-12T08:05:18;15.25;;;6.57;;
71503;SDS011;59323;50.874;7.028;2022-09-12T08:07:44;13.17;;;6.07;;
71503;SDS011;59323;50.874;7.028;2022-09-12T08:10:10;15.65;;;7.65;;
71503;SDS011;59323;50.874;7.028;2022-09-12T08:12:36;12.80;;;6.32;;
71503;SDS011;59323;50.874;7.028;2022-09-12T08:15:01;15.33;;;6.57;;
71503;SDS011;59323;50.874;7.028;2022-09-12T08:17:27;13.07;;;6.47;;
71503;SDS011;59323;50.874;7.028;2022-09-12T08:19:55;15.43;;;6.87;;
71503;SDS011;59323;50.874;7.028;2022-09-12T08:22:29;13.27;;;6.13;;
71503;SDS011;59323;50.874;7.028;2022-09-12T08:25:03;17.05;;;6.43;;
71503;SDS011;59323;50.874;7.028;2022-09-12T08:27:29;14.57;;;6.87;;
71503;SDS011;59323;50.874;7.028;2022-09-12T08:29:54;15.33;;;7.10;;
71503;SDS011;59323;50.874;7.028;2022-09-12T08:32:20;13.63;;;6.97;;
71503;SDS011;59323;50.874;7.028;2022-09-12T08:34:45;11.93;;;6.33;;
71503;SDS011;59323;50.874;7.028;2022-09-12T08:37:10;15.73;;;7.03;;
71503;SDS011;59323;50.874;7.028;2022-09-12T08:39:36;12.32;;;6.57;;
71503;SDS011;59323;50.874;7.028;2022-09-12T08:42:02;14.93;;;6.80;;
71503;SDS011;59323;50.874;7.028;2022-09-12T08:50:07;12.27;;;6.07;;
71503;SDS011;59323;50.874;7.028;2022-09-12T08:55:22;11.95;;;6.40;;
71503;SDS011;59323;50.874;7.028;2022-09-12T08:57:55;13.02;;;6.72;;
71503;SDS011;59323;50.874;7.028;2022-09-12T09:00:21;9.82;;;4.80;;
71503;SDS011;59323;50.874;7.028;2022-09-12T09:05:52;12.98;;;6.57;;
71503;SDS011;59323;50.874;7.028;2022-09-12T09:08:34;12.20;;;6.15;;
71503;SDS011;59323;50.874;7.028;2022-09-12T09:11:19;11.87;;;5.60;;
71503;SDS011;59323;50.874;7.028;2022-09-12T09:13:59;9.90;;;5.47;;
71503;SDS011;59323;50.874;7.028;2022-09-12T09:16:51;10.32;;;5.95;;
71503;SDS011;59323;50.874;7.028;2022-09-12T09:24:52;10.90;;;5.20;;
71503;SDS011;59323;50.874;7.028;2022-09-12T09:27:30;11.55;;;5.72;;
71503;SDS011;59323;50.874;7.028;2022-09-12T09:30:00;9.98;;;5.53;;
71503;SDS011;59323;50.874;7.028;2022-09-12T09:32:28;10.45;;;5.50;;
71503;SDS011;59323;50.874;7.028;2022-09-12T09:34:58;11.65;;;5.90;;
71503;SDS011;59323;50.874;7.028;2022-09-12T09:37:37;12.37;;;6.20;;
71503;SDS011;59323;50.874;7.028;2022-09-12T09:40:16;10.52;;;5.63;;
71503;SDS011;59323;50.874;7.028;2022-09-12T09:43:11;11.35;;;5.72;;
71503;SDS011;59323;50.874;7.028;2022-09-12T09:45:39;12.75;;;6.00;;
71503;SDS011;59323;50.874;7.028;2022-09-12T09:50:34;9.03;;;5.20;;
71503;SDS011;59323;50.874;7.028;2022-09-12T09:53:00;9.60;;;5.30;;
71503;SDS011;59323;50.874;7.028;2022-09-12T09:55:29;11.50;;;5.40;;
71503;SDS011;59323;50.874;7.028;2022-09-12T09:58:02;9.35;;;5.40;;
71503;SDS011;59323;50.874;7.028;2022-09-12T10:05:24;10.18;;;5.47;;
71503;SDS011;59323;50.874;7.028;2022-09-12T10:07:56;10.30;;;4.63;;
71503;SDS011;59323;50.874;7.028;2022-09-12T10:10:24;9.02;;;4.43;;
71503;SDS011;59323;50.874;7.028;2022-09-12T10:13:06;8.33;;;4.33;;
71503;SDS011;59323;50.874;7.028;2022-09-12T10:15:34;9.93;;;4.65;;
71503;SDS011;59323;50.874;7.028;2022-09-12T10:17:59;7.63;;;4.10;;
71503;SDS011;59323;50.874;7.028;2022-09-12T10:20:38;6.70;;;3.63;;
71503;SDS011;59323;50.874;7.028;2022-09-12T10:23:27;6.22;;;3.78;;
71503;SDS011;59323;50.874;7.028;2022-09-12T10:26:12;8.40;;;3.88;;
71503;SDS011;59323;50.874;7.028;2022-09-12T10:28:40;7.60;;;3.80;;
71503;SDS011;59323;50.874;7.028;2022-09-12T10:31:09;6.35;;;3.55;;
71503;SDS011;59323;50.874;7.028;2022-09-12T10:33:43;7.55;;;4.13;;
71503;SDS011;59323;50.874;7.028;2022-09-12T10:36:16;7.88;;;3.67;;
71503;SDS011;59323;50.874;7.028;2022-09-12T10:38:50;7.25;;;3.95;;
71503;SDS011;59323;50.874;7.028;2022-09-12T10:41:26;5.30;;;3.03;;
71503;SDS011;59323;50.874;7.028;2022-09-12T10:44:05;6.38;;;3.67;;
71503;SDS011;59323;50.874;7.028;2022-09-12T10:46:33;6.05;;;3.55;;
71503;SDS011;59323;50.874;7.028;2022-09-12T10:51:48;6.95;;;3.30;;
71503;SDS011;59323;50.874;7.028;2022-09-12T10:54:18;8.68;;;3.20;;
71503;SDS011;59323;50.874;7.028;2022-09-12T11:02:57;6.40;;;3.87;;
71503;SDS011;59323;50.874;7.028;2022-09-12T11:05:58;5.10;;;3.20;;
71503;SDS011;59323;50.874;7.028;2022-09-12T11:19:52;4.25;;;2.65;;
71503;SDS011;59323;50.874;7.028;2022-09-12T11:22:38;4.95;;;2.75;;
71503;SDS011;59323;50.874;7.028;2022-09-12T11:28:34;4.82;;;2.45;;
71503;SDS011;59323;50.874;7.028;2022-09-12T11:33:45;5.30;;;2.50;;
71503;SDS011;59323;50.874;7.028;2022-09-12T11:39:12;4.63;;;2.95;;
71503;SDS011;59323;50.874;7.028;2022-09-12T11:41:40;4.43;;;2.40;;
71503;SDS011;59323;50.874;7.028;2022-09-12T11:46:42;4.72;;;2.42;;
71503;SDS011;59323;50.874;7.028;2022-09-12T11:54:11;3.95;;;2.60;;
71503;SDS011;59323;50.874;7.028;2022-09-12T11:56:43;3.87;;;2.10;;
71503;SDS011;59323;50.874;7.028;2022-09-12T12:01:55;4.47;;;2.47;;
71503;SDS011;59323;50.874;7.028;2022-09-12T12:04:24;4.85;;;2.30;;
71503;SDS011;59323;50.874;7.028;2022-09-12T12:07:02;3.55;;;2.03;;
71503;SDS011;59323;50.874;7.028;2022-09-12T12:09:30;3.00;;;1.97;;
71503;SDS011;59323;50.874;7.028;2022-09-12T12:12:00;6.10;;;2.10;;
71503;SDS011;59323;50.874;7.028;2022-09-12T12:17:16;4.97;;;2.83;;
71503;SDS011;59323;50.874;7.028;2022-09-12T12:20:03;3.67;;;2.05;;
71503;SDS011;59323;50.874;7.028;2022-09-12T12:22:30;5.30;;;2.37;;
71503;SDS011;59323;50.874;7.028;2022-09-12T12:25:01;3.30;;;1.95;;
71503;SDS011;59323;50.874;7.028;2022-09-12T12:27:51;5.00;;;2.10;;
71503;SDS011;59323;50.874;7.028;2022-09-12T12:38:00;3.90;;;2.53;;
71503;SDS011;59323;50.874;7.028;2022-09-12T12:40:27;4.55;;;2.55;;
71503;SDS011;59323;50.874;7.028;2022-09-12T12:42:58;5.15;;;2.72;;
71503;SDS011;59323;50.874;7.028;2022-09-12T12:48:06;4.27;;;2.53;;
71503;SDS011;59323;50.874;7.028;2022-09-12T12:50:34;4.55;;;2.60;;
71503;SDS011;59323;50.874;7.028;2022-09-12T12:55:49;4.65;;;2.50;;
71503;SDS011;59323;50.874;7.028;2022-09-12T12:58:32;4.60;;;2.63;;
71503;SDS011;59323;50.874;7.028;2022-09-12T13:01:14;7.22;;;2.88;;
71503;SDS011;59323;50.874;7.028;2022-09-12T13:03:46;6.17;;;3.03;;
71503;SDS011;59323;50.874;7.028;2022-09-12T13:06:24;7.40;;;3.05;;
71503;SDS011;59323;50.874;7.028;2022-09-12T13:09:00;4.28;;;2.60;;
71503;SDS011;59323;50.874;7.028;2022-09-12T13:11:31;4.47;;;2.33;;
71503;SDS011;59323;50.874;7.028;2022-09-12T13:14:06;5.88;;;2.88;;
71503;SDS011;59323;50.874;7.028;2022-09-12T13:16:55;5.20;;;2.30;;
71503;SDS011;59323;50.874;7.028;2022-09-12T13:19:26;5.35;;;2.80;;
71503;SDS011;59323;50.874;7.028;2022-09-12T13:22:01;5.60;;;2.75;;
71503;SDS011;59323;50.874;7.028;2022-09-12T13:24:29;4.82;;;2.60;;
71503;SDS011;59323;50.874;7.028;2022-09-12T13:26:55;5.05;;;2.85;;
71503;SDS011;59323;50.874;7.028;2022-09-12T13:29:22;5.13;;;2.70;;
71503;SDS011;59323;50.874;7.028;2022-09-12T13:32:02;4.70;;;2.65;;
71503;SDS011;59323;50.874;7.028;2022-09-12T13:34:29;9.65;;;3.42;;
71503;SDS011;59323;50.874;7.028;2022-09-12T13:39:47;5.03;;;2.97;;
71503;SDS011;59323;50.874;7.028;2022-09-12T13:42:27;4.73;;;2.83;;
71503;SDS011;59323;50.874;7.028;2022-09-12T13:44:58;7.13;;;2.80;;
71503;SDS011;59323;50.874;7.028;2022-09-12T13:47:38;7.15;;;3.22;;
71503;SDS011;59323;50.874;7.028;2022-09-12T13:50:18;6.07;;;3.40;;
71503;SDS011;59323;50.874;7.028;2022-09-12T13:53:05;5.00;;;3.28;;
71503;SDS011;59323;50.874;7.028;2022-09-12T13:55:39;5.40;;;3.00;;
71503;SDS011;59323;50.874;7.028;2022-09-12T14:03:38;4.32;;;2.78;;
71503;SDS011;59323;50.874;7.028;2022-09-12T14:06:51;11.32;;;4.03;;
71503;SDS011;59323;50.874;7.028;2022-09-12T14:09:27;4.73;;;2.90;;
71503;SDS011;59323;50.874;7.028;2022-09-12T14:11:58;4.63;;;2.67;;
71503;SDS011;59323;50.874;7.028;2022-09-12T14:14:36;6.50;;;3.50;;
71503;SDS011;59323;50.874;7.028;2022-09-12T14:17:24;6.03;;;3.10;;
71503;SDS011;59323;50.874;7.028;2022-09-12T14:20:15;5.80;;;3.15;;
71503;SDS011;59323;50.874;7.028;2022-09-12T14:22:42;5.90;;;3.10;;
71503;SDS011;59323;50.874;7.028;2022-09-12T14:25:18;4.97;;;3.10;;
71503;SDS011;59323;50.874;7.028;2022-09-12T14:27:55;7.38;;;3.30;;
71503;SDS011;59323;50.874;7.028;2022-09-12T14:30:27;5.00;;;2.70;;
71503;SDS011;59323;50.874;7.028;2022-09-12T14:35:50;5.47;;;2.87;;
71503;SDS011;59323;50.874;7.028;2022-09-12T14:39:03;6.90;;;3.20;;
71503;SDS011;59323;50.874;7.028;2022-09-12T14:41:40;8.60;;;2.83;;
71503;SDS011;59323;50.874;7.028;2022-09-12T14:44:21;6.97;;;2.78;;
71503;SDS011;59323;50.874;7.028;2022-09-12T14:46:52;4.95;;;2.45;;
71503;SDS011;59323;50.874;7.028;2022-09-12T14:49:33;5.27;;;2.50;;
71503;SDS011;59323;50.874;7.028;2022-09-12T14:52:23;5.68;;;2.60;;
71503;SDS011;59323;50.874;7.028;2022-09-12T14:54:56;5.70;;;2.83;;
71503;SDS011;59323;50.874;7.028;2022-09-12T14:57:38;6.00;;;2.72;;
71503;SDS011;59323;50.874;7.028;2022-09-12T15:02:37;5.73;;;2.97;;
71503;SDS011;59323;50.874;7.028;2022-09-12T15:10:30;7.70;;;3.05;;
71503;SDS011;59323;50.874;7.028;2022-09-12T15:15:35;7.90;;;3.22;;
71503;SDS011;59323;50.874;7.028;2022-09-12T15:18:02;5.03;;;2.78;;
71503;SDS011;59323;50.874;7.028;2022-09-12T15:20:29;5.23;;;3.13;;
71503;SDS011;59323;50.874;7.028;2022-09-12T15:24:08;4.45;;;2.72;;
71503;SDS011;59323;50.874;7.028;2022-09-12T15:26:19;5.05;;;2.92;;
71503;SDS011;59323;50.874;7.028;2022-09-12T15:28:51;5.78;;;3.00;;
71503;SDS011;59323;50.874;7.028;2022-09-12T15:31:27;4.80;;;2.97;;
71503;SDS011;59323;50.874;7.028;2022-09-12T15:34:12;4.07;;;2.33;;
71503;SDS011;59323;50.874;7.028;2022-09-12T15:36:38;4.73;;;2.40;;
71503;SDS011;59323;50.874;7.028;2022-09-12T15:39:07;4.68;;;2.65;;
71503;SDS011;59323;50.874;7.028;2022-09-12T15:41:35;6.28;;;2.85;;
71503;SDS011;59323;50.874;7.028;2022-09-12T15:44:15;4.82;;;2.80;;
71503;SDS011;59323;50.874;7.028;2022-09-12T15:46:43;4.32;;;2.47;;
71503;SDS011;59323;50.874;7.028;2022-09-12T15:49:11;4.10;;;2.20;;
71503;SDS011;59323;50.874;7.028;2022-09-12T15:51:36;5.22;;;2.28;;
71503;SDS011;59323;50.874;7.028;2022-09-12T15:54:02;7.27;;;2.60;;
71503;SDS011;59323;50.874;7.028;2022-09-12T15:56:28;6.57;;;2.90;;
71503;SDS011;59323;50.874;7.028;2022-09-12T15:59:03;4.23;;;2.20;;
71503;SDS011;59323;50.874;7.028;2022-09-12T16:01:29;6.35;;;2.55;;
71503;SDS011;59323;50.874;7.028;2022-09-12T16:04:05;3.88;;;2.10;;
71503;SDS011;59323;50.874;7.028;2022-09-12T16:06:48;5.10;;;2.60;;
71503;SDS011;59323;50.874;7.028;2022-09-12T16:09:23;4.13;;;2.20;;
71503;SDS011;59323;50.874;7.028;2022-09-12T16:11:48;4.63;;;2.63;;
71503;SDS011;59323;50.874;7.028;2022-09-12T16:14:15;6.40;;;2.63;;
71503;SDS011;59323;50.874;7.028;2022-09-12T16:16:50;5.88;;;2.88;;
71503;SDS011;59323;50.874;7.028;2022-09-12T16:19:18;7.90;;;2.30;;
71503;SDS011;59323;50.874;7.028;2022-09-12T16:21:46;4.17;;;2.30;;
71503;SDS011;59323;50.874;7.028;2022-09-12T16:24:16;5.37;;;2.20;;
71503;SDS011;59323;50.874;7.028;2022-09-12T16:26:44;3.20;;;1.98;;
71503;SDS011;59323;50.874;7.028;2022-09-12T16:29:25;5.73;;;2.20;;
71503;SDS011;59323;50.874;7.028;2022-09-12T16:31:53;6.88;;;2.70;;
71503;SDS011;59323;50.874;7.028;2022-09-12T16:34:27;5.47;;;2.55;;
71503;SDS011;59323;50.874;7.028;2022-09-12T16:36:53;6.33;;;2.80;;
71503;SDS011;59323;50.874;7.028;2022-09-12T16:39:18;6.40;;;2.50;;
71503;SDS011;59323;50.874;7.028;2022-09-12T16:41:47;8.48;;;2.40;;
71503;SDS011;59323;50.874;7.028;2022-09-12T16:44:15;8.05;;;3.17;;
71503;SDS011;59323;50.874;7.028;2022-09-12T16:46:43;8.95;;;2.40;;
71503;SDS011;59323;50.874;7.028;2022-09-12T16:49:19;10.68;;;2.70;;
71503;SDS011;59323;50.874;7.028;2022-09-12T16:51:45;6.70;;;2.90;;
71503;SDS011;59323;50.874;7.028;2022-09-12T16:54:16;5.45;;;2.67;;
71503;SDS011;59323;50.874;7.028;2022-09-12T16:56:50;6.32;;;2.67;;
71503;SDS011;59323;50.874;7.028;2022-09-12T16:59:21;6.50;;;2.80;;
71503;SDS011;59323;50.874;7.028;2022-09-12T17:02:02;5.85;;;2.92;;
71503;SDS011;59323;50.874;7.028;2022-09-12T17:04:30;5.63;;;2.50;;
71503;SDS011;59323;50.874;7.028;2022-09-12T17:06:56;5.90;;;2.60;;
71503;SDS011;59323;50.874;7.028;2022-09-12T17:12:16;5.95;;;2.63;;
71503;SDS011;59323;50.874;7.028;2022-09-12T17:14:44;4.95;;;2.53;;
71503;SDS011;59323;50.874;7.028;2022-09-12T17:17:09;5.97;;;2.40;;
71503;SDS011;59323;50.874;7.028;2022-09-12T17:19:34;7.03;;;2.73;;
71503;SDS011;59323;50.874;7.028;2022-09-12T17:22:00;4.53;;;2.47;;
71503;SDS011;59323;50.874;7.028;2022-09-12T17:24:25;6.03;;;3.10;;
71503;SDS011;59323;50.874;7.028;2022-09-12T17:26:51;6.00;;;2.80;;
71503;SDS011;59323;50.874;7.028;2022-09-12T17:29:23;5.10;;;2.50;;
71503;SDS011;59323;50.874;7.028;2022-09-12T17:31:52;5.40;;;2.45;;
71503;SDS011;59323;50.874;7.028;2022-09-12T17:34:32;3.53;;;2.00;;
71503;SDS011;59323;50.874;7.028;2022-09-12T17:37:03;5.32;;;2.20;;
71503;SDS011;59323;50.874;7.028;2022-09-12T17:39:39;6.82;;;2.28;;
71503;SDS011;59323;50.874;7.028;2022-09-12T17:42:07;7.28;;;2.53;;